sensor_id;sensor_type;location;lat;lon;timestamp;pressure;altitude;pressure_sealevel;temperature;humidity
42587;BME280;28216;53.362;-6.288;2023-06-26T00:00:18;101318.28;;;15.43;100.00
42587;BME280;28216;53.362;-6.288;2023-06-26T00:02:44;101326.22;;;15.43;100.00
42587;BME280;28216;53.362;-6.288;2023-06-26T00:05:10;101314.53;;;15.38;100.00
42587;BME280;28216;53.362;-6.288;2023-06-26T00:07:35;101322.53;;;15.30;100.00
42587;BME280;28216;53.362;-6.288;2023-06-26T00:10:02;101325.34;;;15.28;100.00
42587;BME280;28216;53.362;-6.288;2023-06-26T00:12:30;101324.41;;;15.21;100.00
42587;BME280;28216;53.362;-6.288;2023-06-26T00:14:56;101326.69;;;15.24;100.00
42587;BME280;28216;53.362;-6.288;2023-06-26T00:17:22;101328.34;;;15.25;100.00
42587;BME280;28216;53.362;-6.288;2023-06-26T00:19:48;101334.28;;;15.27;100.00
42587;BME280;28216;53.362;-6.288;2023-06-26T00:22:14;101322.88;;;15.26;100.00
42587;BME280;28216;53.362;-6.288;2023-06-26T00:24:39;101326.16;;;15.29;100.00
42587;BME280;28216;53.362;-6.288;2023-06-26T00:27:05;101328.16;;;15.26;100.00
42587;BME280;28216;53.362;-6.288;2023-06-26T00:29:31;101333.16;;;15.21;100.00
42587;BME280;28216;53.362;-6.288;2023-06-26T00:31:56;101325.75;;;15.17;100.00
42587;BME280;28216;53.362;-6.288;2023-06-26T00:34:21;101331.22;;;15.15;100.00
42587;BME280;28216;53.362;-6.288;2023-06-26T00:36:47;101330.41;;;15.15;100.00
42587;BME280;28216;53.362;-6.288;2023-06-26T00:39:12;101325.28;;;15.13;100.00
42587;BME280;28216;53.362;-6.288;2023-06-26T00:41:39;101329.91;;;15.11;100.00
42587;BME280;28216;53.362;-6.288;2023-06-26T00:44:05;101327.28;;;15.11;100.00
42587;BME280;28216;53.362;-6.288;2023-06-26T00:46:31;101332.72;;;15.10;100.00
42587;BME280;28216;53.362;-6.288;2023-06-26T00:48:59;101328.63;;;15.07;100.00
42587;BME280;28216;53.362;-6.288;2023-06-26T00:51:27;101328.28;;;15.10;100.00
42587;BME280;28216;53.362;-6.288;2023-06-26T00:53:53;101329.44;;;15.08;100.00
42587;BME280;28216;53.362;-6.288;2023-06-26T00:56:19;101337.19;;;15.09;100.00
42587;BME280;28216;53.362;-6.288;2023-06-26T00:58:45;101342.81;;;15.06;100.00
42587;BME280;28216;53.362;-6.288;2023-06-26T01:01:11;101336.38;;;15.09;100.00
42587;BME280;28216;53.362;-6.288;2023-06-26T01:03:41;101339.53;;;15.04;100.00
42587;BME280;28216;53.362;-6.288;2023-06-26T01:06:08;101336.06;;;15.04;100.00
42587;BME280;28216;53.362;-6.288;2023-06-26T01:08:37;101340.53;;;15.03;100.00
42587;BME280;28216;53.362;-6.288;2023-06-26T01:11:03;101341.53;;;15.02;100.00
42587;BME280;28216;53.362;-6.288;2023-06-26T01:13:29;101341.88;;;14.99;100.00
42587;BME280;28216;53.362;-6.288;2023-06-26T01:15:55;101343.53;;;15.00;100.00
42587;BME280;28216;53.362;-6.288;2023-06-26T01:18:22;101346.34;;;14.99;100.00
42587;BME280;28216;53.362;-6.288;2023-06-26T01:20:48;101344.03;;;14.96;100.00
42587;BME280;28216;53.362;-6.288;2023-06-26T01:23:37;101347.50;;;14.96;100.00
42587;BME280;28216;53.362;-6.288;2023-06-26T01:26:22;101342.44;;;14.86;100.00
42587;BME280;28216;53.362;-6.288;2023-06-26T01:28:50;101350.84;;;14.90;100.00
42587;BME280;28216;53.362;-6.288;2023-06-26T01:31:16;101360.41;;;14.83;100.00
42587;BME280;28216;53.362;-6.288;2023-06-26T01:33:43;101352.66;;;14.81;100.00
42587;BME280;28216;53.362;-6.288;2023-06-26T01:36:10;101359.47;;;14.76;100.00
42587;BME280;28216;53.362;-6.288;2023-06-26T01:38:35;101349.72;;;14.76;100.00
42587;BME280;28216;53.362;-6.288;2023-06-26T01:41:02;101357.81;;;14.75;100.00
42587;BME280;28216;53.362;-6.288;2023-06-26T01:43:48;101358.81;;;14.74;100.00
42587;BME280;28216;53.362;-6.288;2023-06-26T01:46:30;101360.63;;;14.73;100.00
42587;BME280;28216;53.362;-6.288;2023-06-26T01:54:54;101355.69;;;14.70;100.00
42587;BME280;28216;53.362;-6.288;2023-06-26T01:57:21;101359.84;;;14.65;100.00
42587;BME280;28216;53.362;-6.288;2023-06-26T01:59:51;101357.03;;;14.66;100.00
42587;BME280;28216;53.362;-6.288;2023-06-26T02:02:17;101361.13;;;14.69;100.00
42587;BME280;28216;53.362;-6.288;2023-06-26T02:04:42;101357.84;;;14.67;100.00
42587;BME280;28216;53.362;-6.288;2023-06-26T02:07:08;101361.81;;;14.62;100.00
42587;BME280;28216;53.362;-6.288;2023-06-26T02:09:34;101358.53;;;14.60;100.00
42587;BME280;28216;53.362;-6.288;2023-06-26T02:12:00;101355.25;;;14.58;100.00
42587;BME280;28216;53.362;-6.288;2023-06-26T02:14:25;101357.06;;;14.58;100.00
42587;BME280;28216;53.362;-6.288;2023-06-26T02:16:51;101362.84;;;14.53;100.00
42587;BME280;28216;53.362;-6.288;2023-06-26T02:19:16;101360.38;;;14.52;100.00
42587;BME280;28216;53.362;-6.288;2023-06-26T02:21:49;101368.31;;;14.44;100.00
42587;BME280;28216;53.362;-6.288;2023-06-26T02:24:15;101362.72;;;14.47;100.00
42587;BME280;28216;53.362;-6.288;2023-06-26T02:26:40;101362.53;;;14.48;100.00
42587;BME280;28216;53.362;-6.288;2023-06-26T02:29:06;101361.88;;;14.46;100.00
42587;BME280;28216;53.362;-6.288;2023-06-26T02:31:31;101364.53;;;14.46;100.00
42587;BME280;28216;53.362;-6.288;2023-06-26T02:33:57;101364.69;;;14.45;100.00
42587;BME280;28216;53.362;-6.288;2023-06-26T02:36:22;101364.88;;;14.43;100.00
42587;BME280;28216;53.362;-6.288;2023-06-26T02:38:48;101361.72;;;14.40;100.00
42587;BME280;28216;53.362;-6.288;2023-06-26T02:41:13;101362.69;;;14.39;100.00
42587;BME280;28216;53.362;-6.288;2023-06-26T02:43:39;101362.03;;;14.37;100.00
42587;BME280;28216;53.362;-6.288;2023-06-26T02:46:04;101360.56;;;14.34;100.00
42587;BME280;28216;53.362;-6.288;2023-06-26T02:48:29;101371.44;;;14.39;100.00
42587;BME280;28216;53.362;-6.288;2023-06-26T02:50:55;101375.25;;;14.37;100.00
42587;BME280;28216;53.362;-6.288;2023-06-26T02:53:20;101370.78;;;14.37;100.00
42587;BME280;28216;53.362;-6.288;2023-06-26T02:55:46;101373.75;;;14.34;100.00
42587;BME280;28216;53.362;-6.288;2023-06-26T02:58:12;101374.91;;;14.40;100.00
42587;BME280;28216;53.362;-6.288;2023-06-26T03:00:38;101378.88;;;14.36;100.00
42587;BME280;28216;53.362;-6.288;2023-06-26T03:03:07;101380.03;;;14.33;100.00
42587;BME280;28216;53.362;-6.288;2023-06-26T03:05:32;101379.22;;;14.32;100.00
42587;BME280;28216;53.362;-6.288;2023-06-26T03:07:58;101378.56;;;14.30;100.00
42587;BME280;28216;53.362;-6.288;2023-06-26T03:10:24;101383.16;;;14.28;100.00
42587;BME280;28216;53.362;-6.288;2023-06-26T03:12:49;101388.44;;;14.28;100.00
42587;BME280;28216;53.362;-6.288;2023-06-26T03:15:15;101380.88;;;14.25;100.00
42587;BME280;28216;53.362;-6.288;2023-06-26T03:17:40;101381.03;;;14.24;100.00
42587;BME280;28216;53.362;-6.288;2023-06-26T03:20:06;101386.16;;;14.25;100.00
42587;BME280;28216;53.362;-6.288;2023-06-26T03:22:33;101391.09;;;14.20;100.00
42587;BME280;28216;53.362;-6.288;2023-06-26T03:24:58;101385.16;;;14.18;100.00
42587;BME280;28216;53.362;-6.288;2023-06-26T03:27:24;101389.94;;;14.15;100.00
42587;BME280;28216;53.362;-6.288;2023-06-26T03:29:52;101386.66;;;14.13;100.00
42587;BME280;28216;53.362;-6.288;2023-06-26T03:32:17;101393.59;;;14.14;100.00
42587;BME280;28216;53.362;-6.288;2023-06-26T03:34:43;101392.41;;;14.08;100.00
42587;BME280;28216;53.362;-6.288;2023-06-26T03:37:08;101396.38;;;14.12;100.00
42587;BME280;28216;53.362;-6.288;2023-06-26T03:39:34;101393.59;;;14.14;100.00
42587;BME280;28216;53.362;-6.288;2023-06-26T03:41:59;101401.31;;;14.07;100.00
42587;BME280;28216;53.362;-6.288;2023-06-26T03:44:27;101401.78;;;14.11;100.00
42587;BME280;28216;53.362;-6.288;2023-06-26T03:46:53;101395.38;;;14.05;100.00
42587;BME280;28216;53.362;-6.288;2023-06-26T03:49:18;101402.28;;;14.06;100.00
42587;BME280;28216;53.362;-6.288;2023-06-26T03:51:44;101405.91;;;14.05;100.00
42587;BME280;28216;53.362;-6.288;2023-06-26T03:54:10;101404.09;;;14.06;100.00
42587;BME280;28216;53.362;-6.288;2023-06-26T03:56:36;101398.84;;;14.06;100.00
42587;BME280;28216;53.362;-6.288;2023-06-26T03:59:01;101404.94;;;14.06;100.00
42587;BME280;28216;53.362;-6.288;2023-06-26T04:01:27;101410.88;;;14.08;100.00
42587;BME280;28216;53.362;-6.288;2023-06-26T04:03:53;101402.94;;;14.08;100.00
42587;BME280;28216;53.362;-6.288;2023-06-26T04:06:18;101401.63;;;14.04;100.00
42587;BME280;28216;53.362;-6.288;2023-06-26T04:08:44;101403.94;;;14.07;100.00
42587;BME280;28216;53.362;-6.288;2023-06-26T04:11:09;101405.25;;;14.11;100.00
42587;BME280;28216;53.362;-6.288;2023-06-26T04:13:35;101410.53;;;14.11;100.00
42587;BME280;28216;53.362;-6.288;2023-06-26T04:16:00;101410.69;;;14.10;100.00
42587;BME280;28216;53.362;-6.288;2023-06-26T04:18:26;101412.34;;;14.11;100.00
42587;BME280;28216;53.362;-6.288;2023-06-26T04:21:11;101414.69;;;14.14;100.00
42587;BME280;28216;53.362;-6.288;2023-06-26T04:23:37;101413.03;;;14.13;100.00
42587;BME280;28216;53.362;-6.288;2023-06-26T04:26:04;101413.69;;;14.15;100.00
42587;BME280;28216;53.362;-6.288;2023-06-26T04:28:31;101419.47;;;14.18;100.00
42587;BME280;28216;53.362;-6.288;2023-06-26T04:30:57;101423.41;;;14.22;100.00
42587;BME280;28216;53.362;-6.288;2023-06-26T04:33:23;101426.69;;;14.24;100.00
42587;BME280;28216;53.362;-6.288;2023-06-26T04:35:49;101430.16;;;14.25;100.00
42587;BME280;28216;53.362;-6.288;2023-06-26T04:38:15;101424.22;;;14.31;100.00
42587;BME280;28216;53.362;-6.288;2023-06-26T04:40:40;101435.44;;;14.33;100.00
42587;BME280;28216;53.362;-6.288;2023-06-26T04:43:06;101440.53;;;14.26;100.00
42587;BME280;28216;53.362;-6.288;2023-06-26T04:45:31;101440.69;;;14.33;100.00
42587;BME280;28216;53.362;-6.288;2023-06-26T04:47:57;101449.28;;;14.35;100.00
42587;BME280;28216;53.362;-6.288;2023-06-26T04:50:23;101457.69;;;14.39;100.00
42587;BME280;28216;53.362;-6.288;2023-06-26T04:52:48;101458.34;;;14.41;100.00
42587;BME280;28216;53.362;-6.288;2023-06-26T04:55:13;101461.13;;;14.39;100.00
42587;BME280;28216;53.362;-6.288;2023-06-26T04:57:39;101465.13;;;14.43;100.00
42587;BME280;28216;53.362;-6.288;2023-06-26T05:00:05;101468.25;;;14.47;100.00
42587;BME280;28216;53.362;-6.288;2023-06-26T05:02:35;101472.53;;;14.56;100.00
42587;BME280;28216;53.362;-6.288;2023-06-26T05:05:01;101473.34;;;14.56;100.00
42587;BME280;28216;53.362;-6.288;2023-06-26T05:07:26;101463.59;;;14.65;100.00
42587;BME280;28216;53.362;-6.288;2023-06-26T05:09:52;101474.13;;;14.73;100.00
42587;BME280;28216;53.362;-6.288;2023-06-26T05:12:17;101478.72;;;14.79;100.00
42587;BME280;28216;53.362;-6.288;2023-06-26T05:14:43;101472.63;;;14.87;100.00
42587;BME280;28216;53.362;-6.288;2023-06-26T05:17:08;101478.53;;;14.97;100.00
42587;BME280;28216;53.362;-6.288;2023-06-26T05:19:34;101477.34;;;15.08;100.00
42587;BME280;28216;53.362;-6.288;2023-06-26T05:22:00;101482.56;;;15.24;100.00
42587;BME280;28216;53.362;-6.288;2023-06-26T05:24:30;101478.38;;;15.38;100.00
42587;BME280;28216;53.362;-6.288;2023-06-26T05:26:56;101477.94;;;15.57;100.00
42587;BME280;28216;53.362;-6.288;2023-06-26T05:29:21;101487.00;;;15.71;100.00
42587;BME280;28216;53.362;-6.288;2023-06-26T05:31:48;101486.81;;;15.95;100.00
42587;BME280;28216;53.362;-6.288;2023-06-26T05:34:15;101485.44;;;16.22;100.00
42587;BME280;28216;53.362;-6.288;2023-06-26T05:36:42;101488.53;;;16.48;100.00
42587;BME280;28216;53.362;-6.288;2023-06-26T05:39:09;101486.28;;;16.60;100.00
42587;BME280;28216;53.362;-6.288;2023-06-26T05:41:34;101479.38;;;16.89;100.00
42587;BME280;28216;53.362;-6.288;2023-06-26T05:44:00;101484.59;;;17.11;100.00
42587;BME280;28216;53.362;-6.288;2023-06-26T05:46:25;101481.38;;;17.31;100.00
42587;BME280;28216;53.362;-6.288;2023-06-26T05:48:51;101484.63;;;17.47;100.00
42587;BME280;28216;53.362;-6.288;2023-06-26T05:51:17;101481.41;;;17.67;100.00
42587;BME280;28216;53.362;-6.288;2023-06-26T05:53:42;101488.06;;;17.99;100.00
42587;BME280;28216;53.362;-6.288;2023-06-26T05:56:09;101480.09;;;18.20;100.00
42587;BME280;28216;53.362;-6.288;2023-06-26T05:58:35;101478.31;;;18.55;100.00
42587;BME280;28216;53.362;-6.288;2023-06-26T06:01:01;101485.16;;;19.40;100.00
42587;BME280;28216;53.362;-6.288;2023-06-26T06:03:26;101471.22;;;20.19;100.00
42587;BME280;28216;53.362;-6.288;2023-06-26T06:06:17;101469.66;;;21.02;100.00
42587;BME280;28216;53.362;-6.288;2023-06-26T06:08:51;101471.91;;;21.63;100.00
42587;BME280;28216;53.362;-6.288;2023-06-26T06:11:37;101472.63;;;22.08;100.00
42587;BME280;28216;53.362;-6.288;2023-06-26T06:14:35;101466.00;;;21.48;100.00
42587;BME280;28216;53.362;-6.288;2023-06-26T06:17:01;101470.09;;;20.99;100.00
42587;BME280;28216;53.362;-6.288;2023-06-26T06:19:27;101480.84;;;20.46;100.00
42587;BME280;28216;53.362;-6.288;2023-06-26T06:21:52;101475.47;;;20.00;100.00
42587;BME280;28216;53.362;-6.288;2023-06-26T06:24:18;101493.16;;;19.47;100.00
42587;BME280;28216;53.362;-6.288;2023-06-26T06:26:46;101491.00;;;19.22;100.00
42587;BME280;28216;53.362;-6.288;2023-06-26T06:29:14;101485.56;;;18.96;100.00
42587;BME280;28216;53.362;-6.288;2023-06-26T06:31:40;101487.13;;;18.84;100.00
42587;BME280;28216;53.362;-6.288;2023-06-26T06:34:05;101485.28;;;18.84;100.00
42587;BME280;28216;53.362;-6.288;2023-06-26T06:36:31;101496.63;;;18.99;100.00
42587;BME280;28216;53.362;-6.288;2023-06-26T06:38:56;101497.31;;;19.15;100.00
42587;BME280;28216;53.362;-6.288;2023-06-26T06:41:22;101504.78;;;19.39;100.00
42587;BME280;28216;53.362;-6.288;2023-06-26T06:43:47;101494.97;;;19.40;100.00
42587;BME280;28216;53.362;-6.288;2023-06-26T06:46:13;101505.53;;;19.74;100.00
42587;BME280;28216;53.362;-6.288;2023-06-26T06:48:38;101511.69;;;19.75;100.00
42587;BME280;28216;53.362;-6.288;2023-06-26T06:51:04;101516.16;;;19.67;100.00
42587;BME280;28216;53.362;-6.288;2023-06-26T06:53:31;101510.44;;;19.64;100.00
42587;BME280;28216;53.362;-6.288;2023-06-26T06:55:56;101517.31;;;19.52;100.00
42587;BME280;28216;53.362;-6.288;2023-06-26T06:58:22;101520.16;;;19.44;100.00
42587;BME280;28216;53.362;-6.288;2023-06-26T07:00:50;101515.13;;;19.62;100.00
42587;BME280;28216;53.362;-6.288;2023-06-26T07:03:18;101512.50;;;19.75;100.00
42587;BME280;28216;53.362;-6.288;2023-06-26T07:05:44;101517.03;;;20.01;100.00
42587;BME280;28216;53.362;-6.288;2023-06-26T07:08:09;101519.91;;;20.06;100.00
42587;BME280;28216;53.362;-6.288;2023-06-26T07:10:38;101529.81;;;20.39;100.00
42587;BME280;28216;53.362;-6.288;2023-06-26T07:13:03;101521.19;;;20.63;100.00
42587;BME280;28216;53.362;-6.288;2023-06-26T07:15:32;101525.91;;;20.68;100.00
42587;BME280;28216;53.362;-6.288;2023-06-26T07:17:57;101522.22;;;20.69;100.00
42587;BME280;28216;53.362;-6.288;2023-06-26T07:20:23;101532.28;;;20.67;100.00
42587;BME280;28216;53.362;-6.288;2023-06-26T07:22:49;101524.28;;;20.67;100.00
42587;BME280;28216;53.362;-6.288;2023-06-26T07:25:14;101524.91;;;20.62;100.00
42587;BME280;28216;53.362;-6.288;2023-06-26T07:27:40;101529.81;;;20.32;100.00
42587;BME280;28216;53.362;-6.288;2023-06-26T07:30:07;101527.94;;;20.26;100.00
42587;BME280;28216;53.362;-6.288;2023-06-26T07:32:34;101528.56;;;20.21;100.00
42587;BME280;28216;53.362;-6.288;2023-06-26T07:35:00;101535.78;;;20.47;100.00
42587;BME280;28216;53.362;-6.288;2023-06-26T07:37:25;101537.41;;;20.81;100.00
42587;BME280;28216;53.362;-6.288;2023-06-26T07:39:51;101536.09;;;21.10;100.00
42587;BME280;28216;53.362;-6.288;2023-06-26T07:42:16;101532.19;;;21.13;100.00
42587;BME280;28216;53.362;-6.288;2023-06-26T07:44:42;101533.94;;;21.45;100.00
42587;BME280;28216;53.362;-6.288;2023-06-26T07:47:08;101536.72;;;22.02;100.00
42587;BME280;28216;53.362;-6.288;2023-06-26T07:49:33;101540.09;;;22.54;100.00
42587;BME280;28216;53.362;-6.288;2023-06-26T07:51:59;101544.78;;;22.83;100.00
42587;BME280;28216;53.362;-6.288;2023-06-26T07:54:24;101540.47;;;23.00;100.00
42587;BME280;28216;53.362;-6.288;2023-06-26T07:57:01;101539.75;;;23.30;100.00
42587;BME280;28216;53.362;-6.288;2023-06-26T07:59:28;101541.53;;;23.18;100.00
42587;BME280;28216;53.362;-6.288;2023-06-26T08:02:17;101546.97;;;23.11;100.00
42587;BME280;28216;53.362;-6.288;2023-06-26T08:04:43;101537.91;;;23.12;100.00
42587;BME280;28216;53.362;-6.288;2023-06-26T08:07:09;101533.41;;;23.61;100.00
42587;BME280;28216;53.362;-6.288;2023-06-26T08:09:34;101540.31;;;23.98;100.00
42587;BME280;28216;53.362;-6.288;2023-06-26T08:12:00;101548.25;;;24.05;100.00
42587;BME280;28216;53.362;-6.288;2023-06-26T08:14:26;101550.19;;;23.86;100.00
42587;BME280;28216;53.362;-6.288;2023-06-26T08:16:51;101549.38;;;23.49;100.00
42587;BME280;28216;53.362;-6.288;2023-06-26T08:19:17;101547.03;;;23.23;100.00
42587;BME280;28216;53.362;-6.288;2023-06-26T08:21:44;101554.44;;;22.84;100.00
42587;BME280;28216;53.362;-6.288;2023-06-26T08:24:10;101555.56;;;22.70;100.00
42587;BME280;28216;53.362;-6.288;2023-06-26T08:26:36;101558.47;;;23.48;100.00
42587;BME280;28216;53.362;-6.288;2023-06-26T08:29:03;101557.69;;;24.07;100.00
42587;BME280;28216;53.362;-6.288;2023-06-26T08:31:36;101557.25;;;24.22;100.00
42587;BME280;28216;53.362;-6.288;2023-06-26T08:34:03;101555.72;;;24.56;100.00
42587;BME280;28216;53.362;-6.288;2023-06-26T08:36:29;101554.53;;;24.87;100.00
42587;BME280;28216;53.362;-6.288;2023-06-26T08:38:54;101555.47;;;24.93;100.00
42587;BME280;28216;53.362;-6.288;2023-06-26T08:41:20;101549.97;;;25.34;98.09
42587;BME280;28216;53.362;-6.288;2023-06-26T08:43:45;101548.97;;;25.52;91.15
42587;BME280;28216;53.362;-6.288;2023-06-26T08:46:11;101552.63;;;25.46;88.82
42587;BME280;28216;53.362;-6.288;2023-06-26T08:48:37;101557.78;;;25.36;82.44
42587;BME280;28216;53.362;-6.288;2023-06-26T08:51:16;101548.72;;;25.14;80.67
42587;BME280;28216;53.362;-6.288;2023-06-26T08:53:59;101557.22;;;25.11;83.30
42587;BME280;28216;53.362;-6.288;2023-06-26T08:56:31;101560.28;;;25.66;80.87
42587;BME280;28216;53.362;-6.288;2023-06-26T08:58:57;101552.09;;;25.61;81.29
42587;BME280;28216;53.362;-6.288;2023-06-26T09:01:23;101553.97;;;25.60;80.11
42587;BME280;28216;53.362;-6.288;2023-06-26T09:03:50;101550.88;;;25.40;76.84
42587;BME280;28216;53.362;-6.288;2023-06-26T09:06:16;101565.66;;;25.02;79.39
42587;BME280;28216;53.362;-6.288;2023-06-26T09:08:43;101569.84;;;24.63;80.96
42587;BME280;28216;53.362;-6.288;2023-06-26T09:11:08;101559.81;;;24.17;87.02
42587;BME280;28216;53.362;-6.288;2023-06-26T09:13:34;101557.69;;;24.07;88.02
42587;BME280;28216;53.362;-6.288;2023-06-26T09:16:05;101561.13;;;23.85;94.02
42587;BME280;28216;53.362;-6.288;2023-06-26T09:18:32;101557.88;;;23.64;100.00
42587;BME280;28216;53.362;-6.288;2023-06-26T09:20:58;101563.53;;;23.20;100.00
42587;BME280;28216;53.362;-6.288;2023-06-26T09:23:23;101564.63;;;22.94;100.00
42587;BME280;28216;53.362;-6.288;2023-06-26T09:25:51;101568.00;;;22.58;100.00
42587;BME280;28216;53.362;-6.288;2023-06-26T09:28:22;101571.38;;;22.46;100.00
42587;BME280;28216;53.362;-6.288;2023-06-26T09:30:48;101563.50;;;23.01;100.00
42587;BME280;28216;53.362;-6.288;2023-06-26T09:33:16;101563.44;;;23.63;100.00
42587;BME280;28216;53.362;-6.288;2023-06-26T09:35:44;101566.50;;;23.96;100.00
42587;BME280;28216;53.362;-6.288;2023-06-26T09:38:09;101574.22;;;24.04;100.00
42587;BME280;28216;53.362;-6.288;2023-06-26T09:40:35;101563.84;;;24.38;96.24
42587;BME280;28216;53.362;-6.288;2023-06-26T09:43:07;101564.94;;;24.19;91.45
42587;BME280;28216;53.362;-6.288;2023-06-26T09:45:33;101565.94;;;23.94;89.54
42587;BME280;28216;53.362;-6.288;2023-06-26T09:48:07;101564.63;;;23.85;88.52
42587;BME280;28216;53.362;-6.288;2023-06-26T09:50:37;101569.41;;;23.46;95.48
42587;BME280;28216;53.362;-6.288;2023-06-26T09:53:13;101572.78;;;22.99;100.00
42587;BME280;28216;53.362;-6.288;2023-06-26T09:55:39;101583.53;;;23.35;100.00
42587;BME280;28216;53.362;-6.288;2023-06-26T09:58:11;101574.75;;;23.83;97.26
42587;BME280;28216;53.362;-6.288;2023-06-26T10:00:41;101565.88;;;23.83;93.77
42587;BME280;28216;53.362;-6.288;2023-06-26T10:03:07;101580.19;;;23.58;93.49
42587;BME280;28216;53.362;-6.288;2023-06-26T10:05:33;101575.78;;;23.45;92.04
42587;BME280;28216;53.362;-6.288;2023-06-26T10:07:59;101584.06;;;23.26;89.41
42587;BME280;28216;53.362;-6.288;2023-06-26T10:10:26;101578.25;;;23.65;88.14
42587;BME280;28216;53.362;-6.288;2023-06-26T10:12:59;101580.19;;;23.58;83.70
42587;BME280;28216;53.362;-6.288;2023-06-26T10:15:27;101586.63;;;23.87;81.57
42587;BME280;28216;53.362;-6.288;2023-06-26T10:17:56;101591.22;;;24.28;76.05
42587;BME280;28216;53.362;-6.288;2023-06-26T10:20:22;101596.31;;;24.71;70.69
42587;BME280;28216;53.362;-6.288;2023-06-26T10:22:48;101588.59;;;24.75;65.97
42587;BME280;28216;53.362;-6.288;2023-06-26T10:25:18;101596.25;;;24.48;64.96
42587;BME280;28216;53.362;-6.288;2023-06-26T10:27:49;101597.41;;;24.52;64.16
42587;BME280;28216;53.362;-6.288;2023-06-26T10:30:20;101583.78;;;24.42;66.18
42587;BME280;28216;53.362;-6.288;2023-06-26T10:32:48;101596.69;;;24.33;66.75
42587;BME280;28216;53.362;-6.288;2023-06-26T10:35:14;101592.63;;;24.01;69.77
42587;BME280;28216;53.362;-6.288;2023-06-26T10:37:47;101600.66;;;24.01;70.77
42587;BME280;28216;53.362;-6.288;2023-06-26T10:40:22;101611.47;;;23.94;69.83
42587;BME280;28216;53.362;-6.288;2023-06-26T10:42:50;101632.13;;;23.14;78.37
42587;BME280;28216;53.362;-6.288;2023-06-26T10:45:19;101659.69;;;22.58;100.00
42587;BME280;28216;53.362;-6.288;2023-06-26T10:47:47;101657.13;;;22.07;100.00
42587;BME280;28216;53.362;-6.288;2023-06-26T10:50:23;101646.59;;;21.67;100.00
42587;BME280;28216;53.362;-6.288;2023-06-26T10:55:34;101665.94;;;21.16;100.00
42587;BME280;28216;53.362;-6.288;2023-06-26T10:58:01;101662.44;;;21.16;100.00
42587;BME280;28216;53.362;-6.288;2023-06-26T11:00:28;101660.59;;;21.10;100.00
42587;BME280;28216;53.362;-6.288;2023-06-26T11:02:53;101667.78;;;21.03;100.00
42587;BME280;28216;53.362;-6.288;2023-06-26T11:05:32;101667.78;;;21.03;100.00
42587;BME280;28216;53.362;-6.288;2023-06-26T11:08:10;101653.84;;;21.27;100.00
42587;BME280;28216;53.362;-6.288;2023-06-26T11:10:54;101654.34;;;21.75;100.00
42587;BME280;28216;53.362;-6.288;2023-06-26T11:13:25;101653.38;;;22.14;100.00
42587;BME280;28216;53.362;-6.288;2023-06-26T11:15:51;101653.09;;;22.61;100.00
42587;BME280;28216;53.362;-6.288;2023-06-26T11:18:17;101654.78;;;22.87;100.00
42587;BME280;28216;53.362;-6.288;2023-06-26T11:20:42;101653.16;;;22.86;100.00
42587;BME280;28216;53.362;-6.288;2023-06-26T11:23:08;101665.41;;;22.37;100.00
42587;BME280;28216;53.362;-6.288;2023-06-26T11:25:37;101673.06;;;22.20;100.00
42587;BME280;28216;53.362;-6.288;2023-06-26T11:28:09;101668.16;;;22.17;100.00
42587;BME280;28216;53.362;-6.288;2023-06-26T11:30:42;101674.88;;;22.26;100.00
42587;BME280;28216;53.362;-6.288;2023-06-26T11:33:09;101670.19;;;22.60;100.00
42587;BME280;28216;53.362;-6.288;2023-06-26T11:35:35;101668.81;;;22.82;100.00
42587;BME280;28216;53.362;-6.288;2023-06-26T11:38:02;101683.63;;;22.78;100.00
42587;BME280;28216;53.362;-6.288;2023-06-26T11:40:35;101689.16;;;22.83;100.00
42587;BME280;28216;53.362;-6.288;2023-06-26T11:43:01;101681.81;;;22.72;100.00
42587;BME280;28216;53.362;-6.288;2023-06-26T11:45:28;101684.47;;;22.72;100.00
42587;BME280;28216;53.362;-6.288;2023-06-26T11:47:56;101686.66;;;22.88;100.00
42587;BME280;28216;53.362;-6.288;2023-06-26T11:50:22;101687.09;;;22.85;100.00
42587;BME280;28216;53.362;-6.288;2023-06-26T11:52:57;101678.09;;;22.73;100.00
42587;BME280;28216;53.362;-6.288;2023-06-26T11:55:24;101670.41;;;23.14;100.00
42587;BME280;28216;53.362;-6.288;2023-06-26T11:57:53;101669.22;;;23.29;100.00
42587;BME280;28216;53.362;-6.288;2023-06-26T12:00:19;101672.59;;;23.42;100.00
42587;BME280;28216;53.362;-6.288;2023-06-26T12:02:45;101680.50;;;23.56;100.00
42587;BME280;28216;53.362;-6.288;2023-06-26T12:05:15;101665.56;;;23.66;100.00
42587;BME280;28216;53.362;-6.288;2023-06-26T12:07:44;101681.84;;;23.65;100.00
42587;BME280;28216;53.362;-6.288;2023-06-26T12:10:11;101684.00;;;23.56;100.00
42587;BME280;28216;53.362;-6.288;2023-06-26T12:12:37;101672.84;;;23.59;100.00
42587;BME280;28216;53.362;-6.288;2023-06-26T12:15:03;101685.69;;;23.51;100.00
42587;BME280;28216;53.362;-6.288;2023-06-26T12:17:30;101684.56;;;23.40;100.00
42587;BME280;28216;53.362;-6.288;2023-06-26T12:19:56;101659.34;;;23.48;96.71
42587;BME280;28216;53.362;-6.288;2023-06-26T12:22:39;101666.25;;;23.37;90.90
42587;BME280;28216;53.362;-6.288;2023-06-26T12:25:14;101664.63;;;23.54;86.50
42587;BME280;28216;53.362;-6.288;2023-06-26T12:27:50;101665.69;;;23.53;86.35
42587;BME280;28216;53.362;-6.288;2023-06-26T12:30:15;101662.88;;;23.66;84.93
42587;BME280;28216;53.362;-6.288;2023-06-26T12:32:45;101664.16;;;23.64;82.49
42587;BME280;28216;53.362;-6.288;2023-06-26T12:35:21;101663.78;;;23.60;82.32
42587;BME280;28216;53.362;-6.288;2023-06-26T12:37:47;101659.75;;;23.69;79.72
42587;BME280;28216;53.362;-6.288;2023-06-26T12:47:06;101646.94;;;23.53;79.35